Time;durP1;ratioP1;P1;durP2;ratioP2;P2;SDS_P1;SDS_P2;PMS_P1;PMS_P2;Temp;Humidity;BMP_temperature;BMP_pressure;BME280_temperature;BME280_humidity;BME280_pressure;Samples;Min_cycle;Max_cycle;Signal;HPM_P1;HPM_P2
2021/03/03 00:02:17;;;;;;;39.30;18.48;;;5.40;90.00;;;;;;4887439;29;20064;-92
2021/03/03 00:04:42;;;;;;;32.20;16.52;;;5.40;89.40;;;;;;4898447;29;20056;-91
2021/03/03 00:07:08;;;;;;;32.60;16.67;;;5.40;89.40;;;;;;4897569;29;20029;-90
2021/03/03 00:09:33;;;;;;;41.90;18.70;;;5.30;89.40;;;;;;4893191;29;20052;-91
2021/03/03 00:11:59;;;;;;;34.90;16.95;;;5.30;89.60;;;;;;4893620;29;20037;-92
2021/03/03 00:14:24;;;;;;;41.25;19.23;;;5.30;89.60;;;;;;4905849;29;20175;-90
2021/03/03 00:16:50;;;;;;;34.25;18.90;;;5.30;89.80;;;;;;4895125;29;20048;-92
2021/03/03 00:19:15;;;;;;;39.63;20.20;;;5.30;89.80;;;;;;4892669;29;20024;-90
2021/03/03 00:21:41;;;;;;;37.78;18.48;;;5.30;89.90;;;;;;4898617;29;20051;-92
2021/03/03 00:24:07;;;;;;;43.95;19.77;;;5.30;89.90;;;;;;4899069;29;20032;-93
2021/03/03 00:26:32;;;;;;;32.72;18.35;;;5.30;89.80;;;;;;4893257;29;20067;-91
2021/03/03 00:28:58;;;;;;;43.72;20.88;;;5.30;89.90;;;;;;4899024;29;20029;-94
2021/03/03 00:31:23;;;;;;;44.70;20.75;;;5.30;90.00;;;;;;4893535;29;20040;-92
2021/03/03 00:33:49;;;;;;;39.35;19.10;;;5.30;90.00;;;;;;4893979;29;20115;-92
2021/03/03 00:36:15;;;;;;;38.58;19.77;;;5.30;90.00;;;;;;4898767;29;20425;-92
2021/03/03 00:38:40;;;;;;;44.38;20.05;;;5.30;90.00;;;;;;4893881;29;20088;-92
2021/03/03 00:41:06;;;;;;;41.78;21.05;;;5.40;90.00;;;;;;4894022;29;20080;-91
2021/03/03 00:43:32;;;;;;;34.67;17.92;;;5.40;90.00;;;;;;4897963;29;20410;-92
2021/03/03 00:45:58;;;;;;;37.88;19.58;;;5.40;90.00;;;;;;4898192;29;20032;-93
2021/03/03 00:48:24;;;;;;;37.42;19.20;;;5.40;90.00;;;;;;4879848;29;20119;-93
2021/03/03 00:50:50;;;;;;;40.13;20.55;;;5.40;90.00;;;;;;4880169;29;20136;-92
2021/03/03 00:53:15;;;;;;;41.67;18.98;;;5.40;90.00;;;;;;4897359;29;20025;-91
2021/03/03 00:55:41;;;;;;;37.17;19.48;;;5.40;90.10;;;;;;4892800;29;20489;-91
2021/03/03 00:58:07;;;;;;;40.35;19.25;;;5.40;90.10;;;;;;4892696;29;20061;-91
2021/03/03 01:00:33;;;;;;;44.15;20.95;;;5.40;90.10;;;;;;4896497;29;20082;-93
2021/03/03 01:02:59;;;;;;;40.75;19.80;;;5.40;90.20;;;;;;4893807;29;20397;-92
2021/03/03 01:05:25;;;;;;;40.80;19.50;;;5.40;90.30;;;;;;4898926;29;20040;-92
2021/03/03 01:07:50;;;;;;;44.78;20.35;;;5.40;90.20;;;;;;4895510;29;20556;-92
2021/03/03 01:10:16;;;;;;;40.60;19.30;;;5.40;90.10;;;;;;4897272;29;20055;-90
2021/03/03 01:12:42;;;;;;;41.20;19.38;;;5.40;90.10;;;;;;4882919;29;20486;-92
2021/03/03 01:15:09;;;;;;;41.58;18.83;;;5.40;90.20;;;;;;4898668;29;20032;-91
2021/03/03 01:17:35;;;;;;;37.10;18.48;;;5.40;90.20;;;;;;4889432;29;20048;-91
2021/03/03 01:20:01;;;;;;;36.13;18.23;;;5.40;90.20;;;;;;4892206;29;20051;-92
2021/03/03 01:22:27;;;;;;;37.35;18.58;;;5.30;90.20;;;;;;4898141;29;20115;-93
2021/03/03 01:24:52;;;;;;;35.13;17.60;;;5.20;90.10;;;;;;4894741;29;20499;-92
2021/03/03 01:27:19;;;;;;;37.47;17.98;;;5.20;90.20;;;;;;4896096;29;20112;-92
2021/03/03 01:29:45;;;;;;;40.33;20.85;;;5.10;90.30;;;;;;4897410;29;20024;-92
2021/03/03 01:32:10;;;;;;;36.45;18.73;;;5.10;90.40;;;;;;4895721;29;20044;-93
2021/03/03 01:34:36;;;;;;;36.58;18.15;;;5.00;90.40;;;;;;4894255;29;20032;-92
2021/03/03 01:37:01;;;;;;;38.35;19.65;;;5.00;90.50;;;;;;4896371;29;20080;-91
2021/03/03 01:39:27;;;;;;;42.75;19.83;;;5.00;90.60;;;;;;4898228;29;20040;-93
2021/03/03 01:41:52;;;;;;;41.58;21.02;;;5.10;90.70;;;;;;4898701;29;20079;-91
2021/03/03 01:44:18;;;;;;;38.65;18.20;;;5.10;90.60;;;;;;4907455;29;20028;-92
2021/03/03 01:46:43;;;;;;;37.63;18.17;;;5.10;90.50;;;;;;4898540;29;20035;-92
2021/03/03 01:49:09;;;;;;;34.92;18.10;;;5.10;90.50;;;;;;4895194;29;20037;-91
2021/03/03 01:51:35;;;;;;;40.80;19.75;;;5.10;90.50;;;;;;4896655;29;20049;-92
2021/03/03 01:54:00;;;;;;;35.90;18.42;;;5.10;90.60;;;;;;4894446;29;20027;-91
2021/03/03 01:56:26;;;;;;;40.65;20.20;;;5.10;90.60;;;;;;4892838;29;20028;-91
2021/03/03 01:58:52;;;;;;;40.20;19.77;;;5.00;90.70;;;;;;4896430;29;20155;-93
2021/03/03 02:01:18;;;;;;;38.83;19.10;;;5.00;90.70;;;;;;4896491;29;20036;-92
2021/03/03 02:03:44;;;;;;;38.22;19.17;;;5.00;90.70;;;;;;4895585;29;20032;-92
2021/03/03 02:06:16;;;;;;;39.70;19.55;;;5.00;91.00;;;;;;4888410;29;20028;-91
2021/03/03 02:08:44;;;;;;;;;;;5.00;90.80;;;;;;4894939;29;20052;-90
2021/03/03 02:11:20;;;;;;;37.03;18.17;;;4.90;90.80;;;;;;4891564;29;20360;-92
2021/03/03 02:13:49;;;;;;;35.40;18.92;;;4.90;90.80;;;;;;4893680;29;20024;-91
2021/03/03 02:16:16;;;;;;;36.50;18.95;;;4.90;90.90;;;;;;4896244;29;20039;-91
2021/03/03 02:18:42;;;;;;;37.38;19.15;;;5.00;90.90;;;;;;4896296;29;20567;-92
2021/03/03 02:21:09;;;;;;;41.63;19.48;;;5.00;90.80;;;;;;4887233;29;20037;-92
2021/03/03 02:23:47;;;;;;;40.80;20.80;;;5.00;90.80;;;;;;4891762;29;20036;-90
2021/03/03 02:26:15;;;;;;;38.28;18.73;;;5.00;90.70;;;;;;4892133;29;20036;-91
2021/03/03 02:28:41;;;;;;;39.92;19.88;;;5.00;90.80;;;;;;4895806;29;20168;-91
2021/03/03 02:31:07;;;;;;;43.33;20.50;;;5.00;90.80;;;;;;4898488;29;20521;-91
2021/03/03 02:33:33;;;;;;;43.75;21.08;;;5.00;90.90;;;;;;4891105;29;20036;-92
2021/03/03 02:35:59;;;;;;;41.78;19.88;;;4.90;90.90;;;;;;4900611;29;20036;-90
2021/03/03 02:38:26;;;;;;;44.00;20.13;;;4.90;91.00;;;;;;4897419;29;20036;-92
2021/03/03 02:40:52;;;;;;;38.90;21.05;;;4.90;91.00;;;;;;4897571;29;20036;-92
2021/03/03 02:43:19;;;;;;;40.50;19.27;;;5.00;91.00;;;;;;4899950;29;20489;-92
2021/03/03 02:45:48;;;;;;;42.63;20.27;;;5.00;91.00;;;;;;4889312;29;20508;-91
2021/03/03 02:48:15;;;;;;;37.28;19.75;;;4.90;91.00;;;;;;4887397;29;20045;-92
2021/03/03 02:50:41;;;;;;;45.28;20.73;;;4.90;91.00;;;;;;4894199;29;20029;-91
2021/03/03 02:53:07;;;;;;;37.70;20.58;;;4.90;91.00;;;;;;4895969;29;20031;-90
2021/03/03 02:55:33;;;;;;;42.97;20.65;;;4.80;91.10;;;;;;4897052;29;20065;-93
2021/03/03 02:58:00;;;;;;;36.10;19.40;;;4.80;91.50;;;;;;4893649;29;20036;-92
2021/03/03 03:00:35;;;;;;;39.05;19.52;;;4.80;91.30;;;;;;4888924;29;20064;-91
2021/03/03 03:03:10;;;;;;;40.75;18.80;;;4.70;91.30;;;;;;4913298;29;20036;-91
2021/03/03 03:05:36;;;;;;;36.28;20.27;;;4.70;91.30;;;;;;4908046;29;20024;-90
2021/03/03 03:10:41;;;;;;;52.10;22.02;;;4.60;91.30;;;;;;5111462;27;693848;-64
2021/03/03 03:13:09;;;;;;;41.60;20.05;;;4.60;91.40;;;;;;5113757;27;20031;-64
2021/03/03 03:15:36;;;;;;;50.88;21.40;;;4.60;91.40;;;;;;5119654;28;20028;-64
2021/03/03 03:18:10;;;;;;;46.88;20.88;;;4.60;91.50;;;;;;5119786;27;20050;-64
2021/03/03 03:20:36;;;;;;;41.92;20.67;;;4.60;91.50;;;;;;5108353;28;20103;-64
2021/03/03 03:23:04;;;;;;;38.45;19.38;;;4.50;91.50;;;;;;5109075;28;20028;-64
2021/03/03 03:25:31;;;;;;;44.50;19.60;;;4.50;91.60;;;;;;5110553;28;20027;-64
2021/03/03 03:27:58;;;;;;;36.85;18.70;;;4.50;91.60;;;;;;5109988;28;20458;-64
2021/03/03 03:30:25;;;;;;;44.58;20.95;;;4.50;91.60;;;;;;5109072;28;20134;-63
2021/03/03 03:32:51;;;;;;;38.40;18.83;;;4.50;91.60;;;;;;5109752;28;20020;-63
2021/03/03 03:35:17;;;;;;;43.60;19.48;;;4.50;91.60;;;;;;5108794;28;20024;-64
2021/03/03 03:37:43;;;;;;;43.67;19.35;;;4.50;91.60;;;;;;5108622;28;20036;-64
2021/03/03 03:40:09;;;;;;;40.53;18.50;;;4.40;91.70;;;;;;5108596;28;20084;-64
2021/03/03 03:42:36;;;;;;;37.78;18.45;;;4.30;91.70;;;;;;5108819;28;20477;-64
2021/03/03 03:45:05;;;;;;;39.08;20.25;;;4.30;92.00;;;;;;5108996;28;20020;-64
2021/03/03 03:47:31;;;;;;;39.13;19.90;;;4.30;91.80;;;;;;5109320;28;20031;-64
2021/03/03 03:50:01;;;;;;;42.05;19.80;;;4.20;91.80;;;;;;5100436;28;20370;-64
2021/03/03 03:52:27;;;;;;;35.33;18.55;;;4.20;91.90;;;;;;5109313;28;20097;-64
2021/03/03 03:54:54;;;;;;;44.67;20.60;;;4.20;91.90;;;;;;5108450;28;20028;-64
2021/03/03 03:57:20;;;;;;;42.60;19.42;;;4.20;91.90;;;;;;5109020;28;20028;-64
2021/03/03 03:59:46;;;;;;;39.30;18.73;;;4.20;92.00;;;;;;5108792;28;20020;-64
2021/03/03 04:02:12;;;;;;;42.67;20.15;;;4.20;92.10;;;;;;5107634;28;20039;-64
2021/03/03 04:04:38;;;;;;;43.75;20.05;;;4.20;92.10;;;;;;5109001;28;20435;-64
2021/03/03 04:07:05;;;;;;;41.03;19.25;;;4.20;92.10;;;;;;5108711;28;20123;-64
2021/03/03 04:09:31;;;;;;;42.90;20.48;;;4.20;92.10;;;;;;5107991;28;20044;-64
2021/03/03 04:11:57;;;;;;;37.53;18.92;;;4.20;92.10;;;;;;5108173;28;20024;-64
2021/03/03 04:14:23;;;;;;;39.00;19.08;;;4.20;92.20;;;;;;5109558;28;20095;-64
2021/03/03 04:16:49;;;;;;;39.42;19.45;;;4.20;92.10;;;;;;5108605;28;20458;-64
2021/03/03 04:19:15;;;;;;;37.47;18.75;;;4.20;92.10;;;;;;5108579;28;20028;-64
2021/03/03 04:21:40;;;;;;;38.33;18.60;;;4.20;92.10;;;;;;5097166;28;20028;-64
2021/03/03 04:24:06;;;;;;;38.75;19.40;;;4.10;92.10;;;;;;5094925;28;20063;-64
2021/03/03 04:26:33;;;;;;;47.30;21.30;;;4.10;92.10;;;;;;5093403;28;20024;-64
2021/03/03 04:28:58;;;;;;;40.78;20.23;;;4.10;92.20;;;;;;5095172;28;20024;-64
2021/03/03 04:31:24;;;;;;;40.67;20.70;;;4.10;92.10;;;;;;5093005;28;20115;-64
2021/03/03 04:33:49;;;;;;;43.85;20.08;;;4.10;92.20;;;;;;5094497;28;20050;-64
2021/03/03 04:36:15;;;;;;;46.63;20.52;;;4.00;92.20;;;;;;5094468;28;20028;-64
2021/03/03 04:38:40;;;;;;;41.78;19.67;;;4.10;92.20;;;;;;5092387;28;20054;-64
2021/03/03 04:41:06;;;;;;;45.65;21.83;;;4.10;92.30;;;;;;5094183;28;20016;-64
2021/03/03 04:43:31;;;;;;;46.08;21.17;;;4.10;92.30;;;;;;5094989;28;20486;-64
2021/03/03 04:45:57;;;;;;;41.80;21.85;;;4.20;92.30;;;;;;5091587;28;20024;-64
2021/03/03 04:48:22;;;;;;;42.88;21.77;;;4.20;92.20;;;;;;5095235;28;20485;-64
2021/03/03 04:50:48;;;;;;;44.75;19.02;;;4.30;92.20;;;;;;5095107;28;20020;-64
2021/03/03 04:53:13;;;;;;;39.42;19.33;;;4.20;92.20;;;;;;5093972;28;20024;-64
2021/03/03 04:55:39;;;;;;;43.25;20.83;;;4.20;92.20;;;;;;5092647;28;20047;-64
2021/03/03 04:58:04;;;;;;;38.10;18.90;;;4.20;92.30;;;;;;5094002;28;20028;-64
2021/03/03 05:00:30;;;;;;;47.80;20.67;;;4.20;92.40;;;;;;5094494;28;20024;-64
2021/03/03 05:02:56;;;;;;;42.70;19.17;;;4.20;92.40;;;;;;5093973;28;20020;-64
2021/03/03 05:05:21;;;;;;;41.00;20.55;;;4.20;92.30;;;;;;5094585;28;20394;-64
2021/03/03 05:07:47;;;;;;;43.35;20.88;;;4.20;92.30;;;;;;5093485;28;20099;-62
2021/03/03 05:10:13;;;;;;;40.83;19.88;;;4.10;92.30;;;;;;5092872;28;20052;-64
2021/03/03 05:12:38;;;;;;;37.25;18.92;;;4.10;92.70;;;;;;5093005;28;20054;-65
2021/03/03 05:15:05;;;;;;;39.47;18.88;;;4.00;92.40;;;;;;5094094;28;20024;-64
2021/03/03 05:17:30;;;;;;;41.78;19.17;;;4.00;92.40;;;;;;5094524;28;20076;-64
2021/03/03 05:19:56;;;;;;;41.15;20.38;;;3.90;92.50;;;;;;5094177;28;20060;-64
2021/03/03 05:22:21;;;;;;;40.47;20.02;;;3.90;92.50;;;;;;5090521;28;20031;-64
2021/03/03 05:24:47;;;;;;;50.05;20.55;;;3.90;92.60;;;;;;5090579;28;20024;-64
2021/03/03 05:27:12;;;;;;;49.55;23.20;;;3.80;92.60;;;;;;5091482;28;20074;-64
2021/03/03 05:29:38;;;;;;;38.65;19.48;;;3.80;93.00;;;;;;5089030;28;20040;-64
2021/03/03 05:32:04;;;;;;;43.70;20.70;;;3.90;92.70;;;;;;5088033;28;20096;-65
2021/03/03 05:34:29;;;;;;;43.85;20.88;;;3.90;92.70;;;;;;5092565;28;20060;-63
2021/03/03 05:36:55;;;;;;;40.10;20.23;;;3.80;92.70;;;;;;5094125;28;20028;-63
2021/03/03 05:39:20;;;;;;;42.70;20.65;;;3.90;92.80;;;;;;5092177;28;20031;-64
2021/03/03 05:41:46;;;;;;;41.35;19.33;;;3.80;92.80;;;;;;5092095;28;20027;-64
2021/03/03 05:45:00;;;;;;;47.45;21.88;;;3.90;92.80;;;;;;5091222;28;20381;-63
2021/03/03 05:47:20;;;;;;;45.40;20.05;;;3.90;92.70;;;;;;5087607;28;20028;-64
2021/03/03 05:49:47;;;;;;;46.00;19.23;;;3.80;92.80;;;;;;5093077;28;20020;-64
2021/03/03 05:52:15;;;;;;;40.85;20.15;;;3.80;92.80;;;;;;5092537;28;20069;-64
2021/03/03 05:54:42;;;;;;;45.50;20.52;;;3.80;92.80;;;;;;5088195;28;20082;-64
2021/03/03 05:57:09;;;;;;;42.33;19.55;;;3.80;92.90;;;;;;5090038;28;20052;-63
2021/03/03 05:59:36;;;;;;;41.25;20.65;;;3.80;92.90;;;;;;5088957;28;20039;-64
2021/03/03 06:02:02;;;;;;;45.33;19.10;;;3.80;92.90;;;;;;5091548;28;20378;-64
2021/03/03 06:04:27;;;;;;;43.88;19.50;;;3.80;92.90;;;;;;5093585;28;20028;-64
2021/03/03 06:06:54;;;;;;;44.40;21.27;;;3.80;92.90;;;;;;5092188;28;20039;-64
2021/03/03 06:09:19;;;;;;;35.25;18.40;;;3.90;92.90;;;;;;5093612;28;20498;-64
2021/03/03 06:11:45;;;;;;;40.22;19.70;;;3.80;92.90;;;;;;5091662;28;20035;-64
2021/03/03 06:14:11;;;;;;;40.42;19.88;;;3.90;92.90;;;;;;5091841;28;20105;-64
2021/03/03 06:16:36;;;;;;;40.83;20.80;;;3.90;92.90;;;;;;5091232;28;20489;-64
2021/03/03 06:19:02;;;;;;;41.65;20.60;;;3.80;92.90;;;;;;5090944;28;20036;-65
2021/03/03 06:21:29;;;;;;;42.72;21.13;;;3.80;92.80;;;;;;5092525;28;20436;-64
2021/03/03 06:24:00;;;;;;;43.08;20.63;;;3.80;92.80;;;;;;5092382;28;20478;-64
2021/03/03 06:26:25;;;;;;;45.38;21.75;;;3.80;92.90;;;;;;5085814;28;20477;-65
2021/03/03 06:28:51;;;;;;;42.38;20.35;;;3.70;92.90;;;;;;5078524;28;20086;-63
2021/03/03 06:31:32;;;;;;;39.83;20.33;;;3.70;92.90;;;;;;5091837;28;20385;-63
2021/03/03 06:34:18;;;;;;;46.17;21.73;;;3.80;92.90;;;;;;5090081;28;20089;-65
2021/03/03 06:36:46;;;;;;;42.30;20.42;;;3.80;93.00;;;;;;5091761;28;20043;-65
2021/03/03 06:39:19;;;;;;;45.38;21.35;;;3.80;93.30;;;;;;5091548;28;20024;-65
2021/03/03 06:41:45;;;;;;;;;;;3.80;93.00;;;;;;5088683;28;20107;-64
2021/03/03 06:44:11;;;;;;;47.35;20.27;;;3.80;92.90;;;;;;5101527;28;19944;-64
2021/03/03 06:46:36;;;;;;;42.53;19.08;;;3.80;92.90;;;;;;5086943;28;20052;-64
2021/03/03 06:49:02;;;;;;;43.70;21.40;;;3.80;93.00;;;;;;5089776;28;20052;-64
2021/03/03 06:51:31;;;;;;;48.50;23.15;;;3.80;93.00;;;;;;5091360;28;20476;-64
2021/03/03 06:53:59;;;;;;;47.80;22.42;;;3.80;93.00;;;;;;5090617;28;20024;-64
2021/03/03 06:56:42;;;;;;;51.38;23.48;;;3.80;93.10;;;;;;5082203;28;20055;-64
2021/03/03 06:59:15;;;;;;;49.65;22.60;;;3.90;93.10;;;;;;5086487;28;20112;-65
2021/03/03 07:01:42;;;;;;;49.28;23.48;;;3.90;93.10;;;;;;5090124;28;20031;-65
2021/03/03 07:04:22;;;;;;;41.72;21.27;;;4.00;93.20;;;;;;5088187;28;20470;-65
2021/03/03 07:06:49;;;;;;;47.25;21.48;;;4.10;93.10;;;;;;5090027;28;20028;-65
2021/03/03 07:09:15;;;;;;;43.65;21.83;;;4.20;93.10;;;;;;5090089;28;20406;-66
2021/03/03 07:11:41;;;;;;;50.80;22.98;;;4.20;93.10;;;;;;5091986;28;20119;-64
2021/03/03 07:14:21;;;;;;;45.17;23.38;;;4.30;93.10;;;;;;5092155;28;20540;-64
2021/03/03 07:17:12;;;;;;;47.30;24.25;;;4.40;93.10;;;;;;5086216;28;20056;-65
2021/03/03 07:19:48;;;;;;;52.03;24.23;;;4.50;93.10;;;;;;5088976;28;20032;-65
2021/03/03 07:22:23;;;;;;;47.67;23.35;;;4.60;93.10;;;;;;5092587;28;20020;-65
2021/03/03 07:24:55;;;;;;;46.03;23.30;;;4.60;93.00;;;;;;5090836;28;20481;-64
2021/03/03 07:27:21;;;;;;;55.72;25.83;;;4.80;93.00;;;;;;5087226;28;20020;-66
2021/03/03 07:29:52;;;;;;;51.22;24.17;;;4.90;92.90;;;;;;5091629;28;20085;-63
2021/03/03 07:32:18;;;;;;;45.33;24.15;;;5.00;92.80;;;;;;5087550;28;20142;-64
2021/03/03 07:34:50;;;;;;;49.67;25.15;;;5.00;92.70;;;;;;5091387;28;20043;-63
2021/03/03 07:37:17;;;;;;;53.28;26.08;;;5.10;92.70;;;;;;5092129;28;20115;-63
2021/03/03 07:39:57;;;;;;;52.15;26.83;;;5.20;92.60;;;;;;5091405;28;20125;-63
2021/03/03 07:42:26;;;;;;;53.03;25.23;;;5.40;92.60;;;;;;5090093;28;20111;-63
2021/03/03 07:44:54;;;;;;;49.67;24.75;;;5.40;92.50;;;;;;5092775;28;20027;-63
2021/03/03 07:47:22;;;;;;;57.05;26.23;;;5.50;92.50;;;;;;5087741;28;20486;-64
2021/03/03 07:49:49;;;;;;;47.92;26.50;;;5.60;92.40;;;;;;5089653;28;20047;-63
2021/03/03 07:52:18;;;;;;;44.15;25.75;;;5.70;92.40;;;;;;5088830;28;20025;-64
2021/03/03 07:54:43;;;;;;;53.13;27.88;;;5.80;92.30;;;;;;5089606;28;20117;-64
2021/03/03 07:57:10;;;;;;;56.25;26.70;;;5.90;92.30;;;;;;5092810;28;20777;-64
2021/03/03 07:59:36;;;;;;;50.40;26.98;;;6.10;92.30;;;;;;5093691;28;20028;-64
2021/03/03 08:02:02;;;;;;;54.05;29.90;;;6.20;92.30;;;;;;5092245;28;20501;-64
2021/03/03 08:04:39;;;;;;;49.35;27.33;;;6.30;92.20;;;;;;5092091;28;20024;-64
2021/03/03 08:07:17;;;;;;;50.13;26.98;;;6.40;92.10;;;;;;5091085;28;20016;-64
2021/03/03 08:10:13;;;;;;;48.50;27.67;;;6.50;92.00;;;;;;5094877;28;20591;-64
2021/03/03 08:13:01;;;;;;;52.08;28.40;;;6.70;91.90;;;;;;5096328;28;20035;-64
2021/03/03 08:15:46;;;;;;;54.92;28.92;;;6.80;91.80;;;;;;5088294;28;20060;-64
2021/03/03 08:18:26;;;;;;;56.33;30.02;;;6.90;91.70;;;;;;5080399;28;20040;-64
2021/03/03 08:20:56;;;;;;;46.22;27.60;;;6.90;91.60;;;;;;5068445;22;20891;-92
2021/03/03 08:23:34;;;;;;;55.80;29.90;;;7.00;91.60;;;;;;5053370;28;20025;-92
2021/03/03 08:26:05;;;;;;;54.92;29.45;;;7.10;91.50;;;;;;5040277;28;20622;-93
2021/03/03 08:28:37;;;;;;;57.22;30.38;;;7.20;91.40;;;;;;5039574;28;20477;-91
2021/03/03 08:31:10;;;;;;;55.42;30.58;;;7.30;91.40;;;;;;5048209;28;20025;-91
2021/03/03 08:33:41;;;;;;;58.65;31.10;;;7.40;91.30;;;;;;5050869;28;20021;-93
2021/03/03 08:36:12;;;;;;;51.08;29.58;;;7.40;91.10;;;;;;5042974;28;20025;-91
2021/03/03 08:38:38;;;;;;;54.50;30.77;;;7.50;91.10;;;;;;5055624;28;20021;-93
2021/03/03 08:41:16;;;;;;;62.40;32.70;;;7.60;91.00;;;;;;5068221;28;20040;-92
2021/03/03 08:43:46;;;;;;;55.63;31.67;;;7.60;90.80;;;;;;5050832;28;20024;-93
2021/03/03 08:46:21;;;;;;;57.60;32.60;;;7.60;90.60;;;;;;5029846;28;20082;-92
2021/03/03 08:48:56;;;;;;;54.65;31.83;;;7.60;90.60;;;;;;5044927;28;20021;-91
2021/03/03 08:51:28;;;;;;;60.28;33.72;;;7.60;90.70;;;;;;5030825;28;20036;-92
2021/03/03 08:53:58;;;;;;;59.45;31.95;;;7.70;90.70;;;;;;5032731;28;20038;-91
2021/03/03 08:56:39;;;;;;;56.78;33.05;;;7.70;90.60;;;;;;5429155;22;20148;-91
2021/03/03 08:59:09;;;;;;;56.97;32.42;;;7.80;90.60;;;;;;5029750;28;20045;-89
2021/03/03 09:02:06;;;;;;;62.60;33.38;;;7.80;90.70;;;;;;5010283;28;20071;-91
2021/03/03 09:04:42;;;;;;;62.15;35.53;;;8.00;90.70;;;;;;5022964;28;20033;-93
2021/03/03 09:07:22;;;;;;;61.25;35.75;;;8.20;90.50;;;;;;5011935;28;20018;-90
2021/03/03 09:09:54;;;;;;;65.07;35.45;;;8.30;90.30;;;;;;5014957;28;20030;-92
2021/03/03 09:12:31;;;;;;;62.03;34.55;;;8.30;90.20;;;;;;4982689;28;20125;-90
2021/03/03 09:14:59;;;;;;;63.75;36.50;;;8.40;90.50;;;;;;5006031;28;20040;-90
2021/03/03 09:17:28;;;;;;;56.55;34.10;;;8.40;90.30;;;;;;5013307;28;20058;-93
2021/03/03 09:19:59;;;;;;;59.05;34.35;;;8.50;90.20;;;;;;4997803;28;20520;-89
2021/03/03 09:22:36;;;;;;;59.05;34.50;;;8.60;90.20;;;;;;5001394;28;20027;-90
2021/03/03 09:25:21;;;;;;;61.97;36.15;;;8.70;90.20;;;;;;4997979;28;20025;-89
2021/03/03 09:27:58;;;;;;;64.25;34.50;;;8.80;90.10;;;;;;5015888;28;20025;-88
2021/03/03 09:30:26;;;;;;;63.53;37.03;;;8.90;90.00;;;;;;5006130;28;20536;-90
2021/03/03 09:32:53;;;;;;;64.47;36.13;;;8.90;90.00;;;;;;5008086;28;20034;-89
2021/03/03 09:35:31;;;;;;;59.50;37.80;;;9.00;90.10;;;;;;4994922;28;20077;-89
2021/03/03 09:37:58;;;;;;;57.60;36.38;;;9.00;90.00;;;;;;4998492;28;20026;-91
2021/03/03 09:40:32;;;;;;;65.50;38.58;;;9.00;89.80;;;;;;4995190;28;20128;-90
2021/03/03 09:42:59;;;;;;;68.75;40.05;;;9.00;89.80;;;;;;4999906;28;20018;-89
2021/03/03 09:45:26;;;;;;;58.63;36.95;;;9.00;90.00;;;;;;4998381;28;20512;-90
2021/03/03 09:47:52;;;;;;;63.97;38.53;;;9.10;90.20;;;;;;5015430;28;20068;-90
2021/03/03 09:50:23;;;;;;;65.97;39.75;;;9.20;90.10;;;;;;4997868;28;20053;-91
2021/03/03 09:52:54;;;;;;;63.42;36.72;;;9.40;90.00;;;;;;5014871;28;20022;-90
2021/03/03 09:55:26;;;;;;;62.00;37.70;;;9.50;90.00;;;;;;5014782;28;20477;-90
2021/03/03 09:57:56;;;;;;;66.15;38.65;;;9.70;89.90;;;;;;5015027;28;20104;-89
2021/03/03 10:00:27;;;;;;;62.55;36.92;;;9.90;89.60;;;;;;4998433;28;20034;-91
2021/03/03 10:02:55;;;;;;;61.15;38.42;;;10.10;89.10;;;;;;5014264;28;20022;-89
2021/03/03 10:05:30;;;;;;;58.78;36.55;;;10.20;88.50;;;;;;4998947;28;20121;-92
2021/03/03 10:08:01;;;;;;;63.90;38.30;;;10.40;88.20;;;;;;4997186;28;20030;-91
2021/03/03 10:10:28;;;;;;;60.15;36.72;;;10.50;87.80;;;;;;4997609;28;20030;-90
2021/03/03 10:12:55;;;;;;;63.13;36.22;;;10.60;87.40;;;;;;4997184;28;20022;-90
2021/03/03 10:15:53;;;;;;;64.47;40.55;;;10.60;86.90;;;;;;4995999;28;20095;-91
2021/03/03 10:18:21;;;;;;;59.17;35.10;;;10.70;86.60;;;;;;4981769;28;20042;-91
2021/03/03 10:20:51;;;;;;;67.93;37.72;;;10.70;86.80;;;;;;4995367;28;20125;-91
2021/03/03 10:23:30;;;;;;;58.92;36.85;;;10.80;86.60;;;;;;5000181;28;20061;-92
2021/03/03 10:26:07;;;;;;;64.13;37.33;;;10.90;85.90;;;;;;5014941;28;20029;-91
2021/03/03 10:28:33;;;;;;;64.43;38.42;;;10.80;85.70;;;;;;4980080;28;20434;-90
2021/03/03 10:31:04;;;;;;;59.30;35.78;;;10.70;85.90;;;;;;4981247;28;20061;-92
2021/03/03 10:33:36;;;;;;;56.22;35.83;;;10.80;86.30;;;;;;5000990;28;20084;-90
2021/03/03 10:36:13;;;;;;;55.83;36.45;;;11.00;86.10;;;;;;5011303;28;20116;-92
2021/03/03 10:38:48;;;;;;;56.35;34.08;;;11.10;85.50;;;;;;5014431;28;20041;-92
2021/03/03 10:41:24;;;;;;;59.25;35.33;;;11.20;85.60;;;;;;5015423;28;20037;-92
2021/03/03 10:43:50;;;;;;;54.05;33.42;;;11.40;85.30;;;;;;5016607;28;20025;-89
2021/03/03 10:46:21;;;;;;;56.53;36.33;;;11.60;84.80;;;;;;5016545;28;20034;-92
2021/03/03 10:48:47;;;;;;;59.17;35.17;;;11.70;83.80;;;;;;5016899;28;20078;-91
2021/03/03 10:51:16;;;;;;;56.50;35.53;;;11.70;83.90;;;;;;5009775;28;20060;-92
2021/03/03 10:53:54;;;;;;;52.22;34.83;;;11.70;83.70;;;;;;5016992;28;20037;-90
2021/03/03 10:56:25;;;;;;;65.30;37.72;;;11.70;83.20;;;;;;5004348;28;20090;-91
2021/03/03 10:58:52;;;;;;;53.13;34.42;;;11.70;83.40;;;;;;4996369;28;20061;-91
2021/03/03 11:01:19;;;;;;;59.13;38.28;;;11.70;82.70;;;;;;4994861;28;20038;-90
2021/03/03 11:03:57;;;;;;;57.33;37.10;;;11.60;82.70;;;;;;5006964;28;20086;-91
2021/03/03 11:06:27;;;;;;;58.20;35.28;;;11.60;83.10;;;;;;4990559;28;20038;-89
2021/03/03 11:08:52;;;;;;;65.45;40.50;;;11.60;83.00;;;;;;5005566;28;20021;-90
2021/03/03 11:11:18;;;;;;;63.00;37.33;;;11.70;82.90;;;;;;4992002;28;20465;-91
2021/03/03 11:13:43;;;;;;;59.58;36.88;;;11.70;82.70;;;;;;5005622;28;20041;-91
2021/03/03 11:16:09;;;;;;;60.85;38.42;;;11.80;82.70;;;;;;4998661;28;20022;-91
2021/03/03 11:18:34;;;;;;;59.33;37.28;;;11.80;82.60;;;;;;4994196;28;20030;-91
2021/03/03 11:21:00;;;;;;;57.78;36.95;;;11.90;82.90;;;;;;4977669;28;20073;-91
2021/03/03 11:23:26;;;;;;;58.03;37.78;;;12.00;83.00;;;;;;4993382;28;20032;-91
2021/03/03 11:25:52;;;;;;;58.22;36.80;;;12.20;82.70;;;;;;4999232;28;20033;-92
2021/03/03 11:28:18;;;;;;;58.92;35.08;;;12.40;82.60;;;;;;5014944;28;20029;-90
2021/03/03 11:30:43;;;;;;;55.75;34.53;;;12.50;82.00;;;;;;5017310;28;20048;-90
2021/03/03 11:33:09;;;;;;;60.65;36.75;;;12.60;81.60;;;;;;5019042;28;20021;-90
2021/03/03 11:35:35;;;;;;;55.83;36.53;;;12.60;81.20;;;;;;5017699;28;20036;-91
2021/03/03 11:38:00;;;;;;;60.67;39.00;;;12.70;81.20;;;;;;5019724;28;20108;-91
2021/03/03 11:40:26;;;;;;;64.45;40.80;;;12.80;80.70;;;;;;5003986;28;20128;-90
2021/03/03 11:42:52;;;;;;;58.58;38.53;;;12.80;80.50;;;;;;5002542;28;20084;-87
2021/03/03 11:45:17;;;;;;;60.88;40.03;;;12.90;80.50;;;;;;5018641;28;20393;-91
2021/03/03 11:47:43;;;;;;;63.92;40.60;;;13.00;80.60;;;;;;4992367;28;20037;-91
2021/03/03 11:50:09;;;;;;;67.97;42.80;;;13.20;79.70;;;;;;5002629;28;20034;-90
2021/03/03 11:52:35;;;;;;;67.75;41.53;;;13.30;78.90;;;;;;5002799;28;20018;-92
2021/03/03 11:55:01;;;;;;;59.28;38.08;;;13.30;78.30;;;;;;4999022;28;20116;-90
2021/03/03 11:57:26;;;;;;;61.85;40.10;;;13.30;78.00;;;;;;4994918;28;20129;-90
2021/03/03 11:59:52;;;;;;;61.20;38.88;;;13.20;78.00;;;;;;5002489;28;20030;-91
2021/03/03 12:02:17;;;;;;;61.60;38.22;;;13.30;78.20;;;;;;5003093;28;20389;-91
2021/03/03 12:04:43;;;;;;;58.60;38.03;;;13.40;78.00;;;;;;5002338;28;20022;-90
2021/03/03 12:07:09;;;;;;;69.63;42.85;;;13.60;78.00;;;;;;5002176;28;20420;-91
2021/03/03 12:09:34;;;;;;;66.63;41.22;;;13.60;77.10;;;;;;5001584;28;20053;-91
2021/03/03 12:12:00;;;;;;;62.67;40.35;;;13.70;76.90;;;;;;5001174;28;20354;-90
2021/03/03 12:14:26;;;;;;;63.95;40.53;;;13.60;76.60;;;;;;5000582;28;20481;-89
2021/03/03 12:16:52;;;;;;;69.35;43.28;;;13.50;76.20;;;;;;5003874;28;20025;-89
2021/03/03 12:19:18;;;;;;;74.80;45.40;;;13.40;76.50;;;;;;5021379;28;20057;-89
2021/03/03 12:21:43;;;;;;;70.65;42.75;;;13.50;76.70;;;;;;5001609;28;20473;-91
2021/03/03 12:24:09;;;;;;;71.35;43.75;;;13.50;76.50;;;;;;5000923;28;20040;-89
2021/03/03 12:26:35;;;;;;;71.15;44.42;;;13.70;76.60;;;;;;5018343;28;20331;-90
2021/03/03 12:29:00;;;;;;;60.97;40.20;;;13.80;76.10;;;;;;5002285;28;20389;-90
2021/03/03 12:31:26;;;;;;;63.63;40.55;;;13.90;75.90;;;;;;5002406;28;20040;-89
2021/03/03 12:33:51;;;;;;;69.70;44.13;;;14.00;75.50;;;;;;5002229;28;20081;-90
2021/03/03 12:36:17;;;;;;;73.20;45.83;;;14.00;75.10;;;;;;5001280;28;20030;-90
2021/03/03 12:38:42;;;;;;;67.72;42.30;;;14.00;75.00;;;;;;5017149;28;20033;-89
2021/03/03 12:41:08;;;;;;;67.75;43.03;;;14.00;75.00;;;;;;5001444;28;20041;-91
2021/03/03 12:43:34;;;;;;;62.22;41.47;;;14.10;74.90;;;;;;5000584;28;20026;-90
2021/03/03 12:45:59;;;;;;;65.55;41.25;;;14.10;74.80;;;;;;5000056;28;20501;-90